createdAt,value
2019-01-30T00:01:05.766Z,26.30
2019-01-30T00:03:34.682Z,28.30
2019-01-30T00:06:03.420Z,23.57
2019-01-30T00:08:32.105Z,24.37
2019-01-30T00:11:00.811Z,30.43
2019-01-30T00:13:29.560Z,25.60
2019-01-30T00:16:01.405Z,25.73
2019-01-30T00:18:39.368Z,28.60
2019-01-30T00:21:08.128Z,25.93
2019-01-30T00:23:39.283Z,27.03
2019-01-30T00:26:08.132Z,27.53
2019-01-30T00:31:20.804Z,26.67
2019-01-30T00:33:49.601Z,26.97
2019-01-30T00:36:18.336Z,24.37
2019-01-30T00:38:56.192Z,29.10
2019-01-30T00:41:24.881Z,25.43
2019-01-30T00:43:53.620Z,23.00
2019-01-30T00:46:22.372Z,26.80
2019-01-30T00:49:00.362Z,22.30
2019-01-30T00:51:38.292Z,24.80
2019-01-30T00:54:11.583Z,24.77
2019-01-30T00:56:40.344Z,27.30
2019-01-30T00:59:09.289Z,28.53
2019-01-30T01:01:37.957Z,25.80
2019-01-30T01:04:06.798Z,27.20
2019-01-30T01:06:38.477Z,27.70
2019-01-30T01:09:09.941Z,25.57
2019-01-30T01:11:47.735Z,23.53
2019-01-30T01:14:16.496Z,22.43
2019-01-30T01:16:45.176Z,26.73
2019-01-30T01:19:13.927Z,27.33
2019-01-30T01:21:51.861Z,24.40
2019-01-30T01:24:20.666Z,27.70
2019-01-30T01:26:49.341Z,26.17
2019-01-30T01:29:18.027Z,26.80
2019-01-30T01:31:56.210Z,22.53
2019-01-30T01:34:24.919Z,26.30
2019-01-30T01:36:53.710Z,24.73
2019-01-30T01:39:22.376Z,25.07
2019-01-30T01:42:00.280Z,25.10
2019-01-30T01:44:29.381Z,27.00
2019-01-30T01:46:58.201Z,26.57
2019-01-30T01:49:27.185Z,25.93
2019-01-30T01:52:07.933Z,27.27
2019-01-30T01:54:36.890Z,24.83
2019-01-30T01:57:07.465Z,25.73
2019-01-30T01:59:36.405Z,27.63
2019-01-30T02:02:28.147Z,25.13
2019-01-30T02:04:58.181Z,24.13
2019-01-30T02:07:27.175Z,25.47
2019-01-30T02:09:56.149Z,23.10
2019-01-30T02:12:36.156Z,23.10
2019-01-30T02:15:06.497Z,25.40
2019-01-30T02:17:35.654Z,25.87
2019-01-30T02:20:07.114Z,23.00
2019-01-30T02:22:47.795Z,24.40
2019-01-30T02:25:16.545Z,24.80
2019-01-30T02:27:45.780Z,25.27
2019-01-30T02:30:19.897Z,22.57
2019-01-30T02:33:11.595Z,22.53
2019-01-30T02:35:40.429Z,23.83
2019-01-30T02:38:09.099Z,22.93
2019-01-30T02:40:37.821Z,26.17
2019-01-30T02:43:15.878Z,23.73
2019-01-30T02:45:47.831Z,24.50
2019-01-30T02:48:16.651Z,22.67
2019-01-30T02:51:00.767Z,22.70
2019-01-30T02:53:32.868Z,25.53
2019-01-30T02:56:01.552Z,25.83
2019-01-30T02:58:30.260Z,21.63
2019-01-30T03:01:08.100Z,21.90
2019-01-30T03:03:36.938Z,26.67
2019-01-30T03:06:05.656Z,26.47
2019-01-30T03:08:34.384Z,24.20
2019-01-30T03:11:13.245Z,25.70
2019-01-30T03:13:41.960Z,26.90
2019-01-30T03:16:11.106Z,26.53
2019-01-30T03:18:39.861Z,25.27
2019-01-30T03:21:17.829Z,26.10
2019-01-30T03:23:46.808Z,25.97
2019-01-30T03:26:15.559Z,25.00
2019-01-30T03:28:47.113Z,25.50
2019-01-30T03:31:31.484Z,24.20
2019-01-30T03:34:00.554Z,22.73
2019-01-30T03:36:30.989Z,24.47
2019-01-30T03:39:02.066Z,24.27
2019-01-30T03:41:39.971Z,20.77
2019-01-30T03:44:08.693Z,19.97
2019-01-30T03:46:37.391Z,22.00
2019-01-30T03:49:08.948Z,20.57
2019-01-30T03:51:47.039Z,22.30
2019-01-30T03:54:15.682Z,22.73
2019-01-30T03:56:45.757Z,18.93
2019-01-30T03:59:14.772Z,18.00
2019-01-30T04:01:52.780Z,18.03
2019-01-30T04:04:22.920Z,22.03
2019-01-30T04:06:51.687Z,18.17
2019-01-30T04:09:20.487Z,17.87
2019-01-30T04:12:10.329Z,21.37
2019-01-30T04:14:39.023Z,18.47
2019-01-30T04:17:07.691Z,19.17
2019-01-30T04:19:36.729Z,17.80
2019-01-30T04:22:15.575Z,15.67
2019-01-30T04:24:44.265Z,17.30
2019-01-30T04:27:14.673Z,14.40
2019-01-30T04:29:46.289Z,19.23
2019-01-30T04:32:24.290Z,17.57
2019-01-30T04:34:52.997Z,19.73
2019-01-30T04:37:22.149Z,16.30
2019-01-30T04:39:51.063Z,14.53
2019-01-30T04:42:29.081Z,19.17
2019-01-30T04:44:59.450Z,17.90
2019-01-30T04:47:28.360Z,16.20
2019-01-30T04:49:58.365Z,12.80
2019-01-30T04:52:39.277Z,15.47
2019-01-30T04:55:08.110Z,13.53
2019-01-30T04:57:38.096Z,14.77
2019-01-30T05:00:08.526Z,13.20
2019-01-30T05:02:46.313Z,15.60
2019-01-30T05:05:15.212Z,13.43
2019-01-30T05:07:46.290Z,14.50
2019-01-30T05:10:17.857Z,14.83
2019-01-30T05:12:56.181Z,16.40
2019-01-30T05:15:24.892Z,13.60
2019-01-30T05:17:53.603Z,16.83
2019-01-30T05:20:22.287Z,16.80
2019-01-30T05:22:53.773Z,15.70
2019-01-30T05:25:22.518Z,12.90
2019-01-30T05:27:54.433Z,17.87
2019-01-30T05:30:26.063Z,13.57
2019-01-30T05:33:04.127Z,17.70
2019-01-30T05:38:07.826Z,15.77
2019-01-30T05:40:37.189Z,12.80
2019-01-30T05:43:17.154Z,15.07
2019-01-30T05:45:45.928Z,15.77
2019-01-30T05:48:14.677Z,15.50
2019-01-30T05:50:43.485Z,12.60
2019-01-30T05:53:21.899Z,15.03
2019-01-30T05:55:53.153Z,13.03
2019-01-30T05:58:24.260Z,13.03
2019-01-30T06:00:52.951Z,15.30
2019-01-30T06:03:31.038Z,12.40
2019-01-30T06:06:02.004Z,13.80
2019-01-30T06:08:30.738Z,14.93
2019-01-30T06:10:59.421Z,16.43
2019-01-30T06:13:42.915Z,11.90
2019-01-30T06:16:11.648Z,13.90
2019-01-30T06:18:40.538Z,14.47
2019-01-30T06:21:09.496Z,12.40
2019-01-30T06:23:38.451Z,18.17
2019-01-30T06:26:07.128Z,12.73
2019-01-30T06:28:35.897Z,13.07
2019-01-30T06:31:05.321Z,15.47
2019-01-30T06:33:43.349Z,11.33
2019-01-30T06:36:12.035Z,13.33
2019-01-30T06:38:41.312Z,15.27
2019-01-30T06:41:10.307Z,14.53
2019-01-30T06:43:48.042Z,13.33
2019-01-30T06:46:17.009Z,12.67
2019-01-30T06:48:45.649Z,13.63
2019-01-30T06:51:14.539Z,13.20
2019-01-30T06:53:53.531Z,13.13
2019-01-30T06:56:25.245Z,13.37
2019-01-30T06:58:53.874Z,12.60
2019-01-30T07:01:22.806Z,12.57
2019-01-30T07:04:00.711Z,16.13
2019-01-30T07:06:29.628Z,14.13
2019-01-30T07:08:58.280Z,13.30
2019-01-30T07:11:26.965Z,11.80
2019-01-30T07:14:04.733Z,11.37
2019-01-30T07:16:33.462Z,12.03
2019-01-30T07:19:02.145Z,11.30
2019-01-30T07:24:18.571Z,15.63
2019-01-30T07:26:47.259Z,13.63
2019-01-30T07:29:15.969Z,16.30
2019-01-30T07:31:53.537Z,11.70
2019-01-30T07:34:25.659Z,11.90
2019-01-30T07:36:54.391Z,12.50
2019-01-30T07:39:23.384Z,14.07
2019-01-30T07:42:01.060Z,18.40
2019-01-30T07:44:30.332Z,15.13
2019-01-30T07:46:59.129Z,13.23
2019-01-30T07:49:27.841Z,14.27
2019-01-30T07:52:05.812Z,12.43
2019-01-30T07:54:34.473Z,14.50
2019-01-30T07:57:03.210Z,15.97
2019-01-30T07:59:32.157Z,13.97
2019-01-30T08:02:10.262Z,13.60
2019-01-30T08:04:39.203Z,14.77
2019-01-30T08:07:08.249Z,13.83
2019-01-30T08:09:37.045Z,15.43
2019-01-30T08:12:16.035Z,12.87
2019-01-30T08:14:45.086Z,14.20
2019-01-30T08:17:16.973Z,13.90
2019-01-30T08:19:45.633Z,13.17
2019-01-30T08:22:23.507Z,13.27
2019-01-30T08:24:52.203Z,15.00
2019-01-30T08:27:21.416Z,12.17
2019-01-30T08:29:50.489Z,12.93
2019-01-30T08:35:06.389Z,15.07
2019-01-30T08:37:38.609Z,13.10
2019-01-30T08:40:08.458Z,14.90
2019-01-30T08:42:46.166Z,16.73
2019-01-30T08:45:17.974Z,16.00
2019-01-30T08:47:46.628Z,14.77
2019-01-30T08:50:15.420Z,14.63
2019-01-30T08:52:53.557Z,13.97
2019-01-30T08:55:25.311Z,15.20
2019-01-30T08:57:54.152Z,12.93
2019-01-30T09:00:23.538Z,13.40
2019-01-30T09:05:39.549Z,10.90
2019-01-30T09:08:08.843Z,10.83
2019-01-30T09:10:38.110Z,13.03
2019-01-30T09:13:16.117Z,13.87
2019-01-30T09:15:44.872Z,15.23
2019-01-30T09:18:13.860Z,13.13
2019-01-30T09:20:45.143Z,11.67
2019-01-30T09:23:22.934Z,10.83
2019-01-30T09:25:53.517Z,11.20
2019-01-30T09:28:22.366Z,12.53
2019-01-30T09:30:54.145Z,12.70
2019-01-30T09:36:06.778Z,13.87
2019-01-30T09:38:36.436Z,11.40
2019-01-30T09:41:05.433Z,12.07
2019-01-30T09:43:43.656Z,15.30
2019-01-30T09:46:13.441Z,11.83
2019-01-30T09:48:42.192Z,11.80
2019-01-30T09:51:10.909Z,13.60
2019-01-30T09:53:48.683Z,12.53
2019-01-30T09:56:17.387Z,14.73
2019-01-30T09:58:46.197Z,12.97
2019-01-30T10:01:16.097Z,13.73
2019-01-30T10:03:53.850Z,14.10
2019-01-30T10:06:22.821Z,13.73
2019-01-30T10:08:54.868Z,14.00
2019-01-30T10:11:23.601Z,12.20
2019-01-30T10:14:02.284Z,10.30
2019-01-30T10:16:30.962Z,12.87
2019-01-30T10:18:59.672Z,12.40
2019-01-30T10:21:31.388Z,11.43
2019-01-30T10:24:09.638Z,12.17
2019-01-30T10:26:38.420Z,12.87
2019-01-30T10:29:07.497Z,12.10
2019-01-30T10:31:39.024Z,11.27
2019-01-30T10:34:16.955Z,11.63
2019-01-30T10:36:45.632Z,12.30
2019-01-30T10:39:14.507Z,11.70
2019-01-30T10:41:43.193Z,14.77
2019-01-30T10:44:21.041Z,13.50
2019-01-30T10:46:50.347Z,14.10
2019-01-30T10:49:19.432Z,13.90
2019-01-30T10:51:48.278Z,15.07
2019-01-30T10:54:26.552Z,15.50
2019-01-30T10:56:55.503Z,14.30
2019-01-30T10:59:26.664Z,13.37
2019-01-30T11:01:55.428Z,15.33
2019-01-30T11:04:33.633Z,13.27
2019-01-30T11:07:02.301Z,13.57
2019-01-30T11:09:30.999Z,14.47
2019-01-30T11:11:59.897Z,14.97
2019-01-30T11:14:50.297Z,14.37
2019-01-30T11:17:19.120Z,14.10
2019-01-30T11:19:47.863Z,13.67
2019-01-30T11:22:16.550Z,14.20
2019-01-30T11:24:55.732Z,14.93
2019-01-30T11:27:24.909Z,12.17
2019-01-30T11:29:53.596Z,12.43
2019-01-30T11:32:25.136Z,13.30
2019-01-30T11:37:37.646Z,12.40
2019-01-30T11:40:10.853Z,12.03
2019-01-30T11:42:39.565Z,17.77
2019-01-30T11:45:20.109Z,11.03
2019-01-30T11:47:48.825Z,11.93
2019-01-30T11:50:17.625Z,12.20
2019-01-30T11:52:46.354Z,12.03
2019-01-30T11:55:24.483Z,12.97
2019-01-30T11:57:53.422Z,20.63
2019-01-30T12:00:27.142Z,14.83
2019-01-30T12:02:55.918Z,12.37
2019-01-30T12:05:33.531Z,11.83
2019-01-30T12:08:02.517Z,13.40
2019-01-30T12:10:31.255Z,11.20
2019-01-30T12:13:01.600Z,9.63
2019-01-30T12:15:30.441Z,11.63
2019-01-30T12:18:01.775Z,11.17
2019-01-30T12:20:30.478Z,11.00
2019-01-30T12:23:00.250Z,9.83
2019-01-30T12:25:38.437Z,12.30
2019-01-30T12:28:07.303Z,11.53
2019-01-30T12:30:36.579Z,11.37
2019-01-30T12:33:07.756Z,11.37
2019-01-30T12:35:48.392Z,12.23
2019-01-30T12:38:17.049Z,10.27
2019-01-30T12:40:45.760Z,8.63
2019-01-30T12:43:14.818Z,14.47
2019-01-30T12:45:53.419Z,12.60
2019-01-30T12:48:23.672Z,10.10
2019-01-30T12:50:54.546Z,9.97
2019-01-30T12:53:23.276Z,10.63
2019-01-30T12:56:01.406Z,8.50
2019-01-30T12:58:30.108Z,10.77
2019-01-30T13:00:58.957Z,8.80
2019-01-30T13:03:27.750Z,9.63
2019-01-30T13:06:05.724Z,11.90
2019-01-30T13:08:35.786Z,12.63
2019-01-30T13:11:04.504Z,17.73
2019-01-30T13:13:33.306Z,16.43
2019-01-30T13:16:10.937Z,14.50
2019-01-30T13:18:39.801Z,14.80
2019-01-30T13:21:08.510Z,11.97
2019-01-30T13:23:38.884Z,9.77
2019-01-30T13:26:16.938Z,13.70
2019-01-30T13:28:45.673Z,11.00
2019-01-30T13:31:14.720Z,9.73
2019-01-30T13:33:46.096Z,11.23
2019-01-30T13:38:58.011Z,9.47
2019-01-30T13:41:26.775Z,8.87
2019-01-30T13:43:55.486Z,8.83
2019-01-30T13:46:33.469Z,11.30
2019-01-30T13:49:02.137Z,6.10
2019-01-30T13:51:30.959Z,4.43
2019-01-30T13:54:02.742Z,6.67
2019-01-30T13:56:40.866Z,4.13
2019-01-30T13:59:09.746Z,4.03
2019-01-30T14:01:38.516Z,5.57
2019-01-30T14:04:07.296Z,4.97
2019-01-30T14:06:45.240Z,3.40
2019-01-30T14:09:14.177Z,3.27
2019-01-30T14:11:43.055Z,4.63
2019-01-30T14:14:11.856Z,6.17
2019-01-30T14:19:23.773Z,3.87
2019-01-30T14:21:52.687Z,4.90
2019-01-30T14:24:21.720Z,4.33
2019-01-30T14:27:01.896Z,6.17
2019-01-30T14:29:30.639Z,3.53
2019-01-30T14:32:02.049Z,4.73
2019-01-30T14:34:30.857Z,5.30
2019-01-30T14:39:43.031Z,5.83
2019-01-30T14:42:11.988Z,5.20
2019-01-30T14:44:40.745Z,4.97
2019-01-30T14:47:18.468Z,3.70
2019-01-30T14:49:47.348Z,4.13
2019-01-30T14:52:18.843Z,3.97
2019-01-30T14:54:46.852Z,3.87
2019-01-30T14:57:27.877Z,5.73
2019-01-30T14:59:56.707Z,3.73
2019-01-30T15:02:25.554Z,4.83
2019-01-30T15:04:54.801Z,3.63
2019-01-30T15:07:32.969Z,4.37
2019-01-30T15:10:01.996Z,3.80
2019-01-30T15:12:30.939Z,4.47
2019-01-30T15:14:59.929Z,3.93
2019-01-30T15:17:38.092Z,3.50
2019-01-30T15:20:10.482Z,2.33
2019-01-30T15:22:39.341Z,3.03
2019-01-30T15:25:09.561Z,2.87
2019-01-30T15:27:47.405Z,2.67
2019-01-30T15:30:24.979Z,1.93
2019-01-30T15:32:54.043Z,3.07
2019-01-30T15:35:33.275Z,2.77
2019-01-30T15:38:07.741Z,3.87
2019-01-30T15:40:37.022Z,5.20
2019-01-30T15:43:05.812Z,2.67
2019-01-30T15:45:35.561Z,4.93
2019-01-30T15:48:13.376Z,4.20
2019-01-30T15:50:43.067Z,1.60
2019-01-30T15:53:15.100Z,2.30
2019-01-30T15:55:44.096Z,2.37
2019-01-30T15:58:22.097Z,1.93
2019-01-30T16:01:15.435Z,2.53
2019-01-30T16:03:45.380Z,2.10
2019-01-30T16:06:17.136Z,4.50
2019-01-30T16:08:55.169Z,2.97
2019-01-30T16:11:24.606Z,2.57
2019-01-30T16:13:53.424Z,2.37
2019-01-30T16:16:23.248Z,3.30
2019-01-30T16:19:00.881Z,2.43
2019-01-30T16:21:30.048Z,4.43
2019-01-30T16:24:02.107Z,2.30
2019-01-30T16:26:30.920Z,2.20
2019-01-30T16:32:41.282Z,4.90
2019-01-30T16:35:12.367Z,2.50
2019-01-30T16:37:52.582Z,3.60
2019-01-30T16:40:22.804Z,4.67
2019-01-30T16:42:54.423Z,3.27
2019-01-30T16:45:25.117Z,3.33
2019-01-30T16:48:03.048Z,1.70
2019-01-30T16:50:34.330Z,2.40
2019-01-30T16:53:02.561Z,2.67
2019-01-30T16:55:31.585Z,1.57
2019-01-30T17:00:46.742Z,1.33
2019-01-30T17:03:15.831Z,2.23
2019-01-30T17:05:44.911Z,1.27
2019-01-30T17:08:23.309Z,1.40
2019-01-30T17:10:52.369Z,1.17
2019-01-30T17:13:21.382Z,1.47
2019-01-30T17:15:51.389Z,1.07
2019-01-30T17:18:30.410Z,0.87
2019-01-30T17:21:00.871Z,1.00
2019-01-30T17:23:33.160Z,0.97
2019-01-30T17:26:01.863Z,2.30
2019-01-30T17:28:39.914Z,1.13
2019-01-30T17:31:15.545Z,1.27
2019-01-30T17:33:47.375Z,1.13
2019-01-30T17:36:18.583Z,1.10
2019-01-30T17:38:55.614Z,1.20
2019-01-30T17:41:24.301Z,0.87
2019-01-30T17:43:56.270Z,1.20
2019-01-30T17:46:27.823Z,2.03
2019-01-30T17:49:04.641Z,2.47
2019-01-30T17:51:33.657Z,1.07
2019-01-30T17:54:02.702Z,2.13
2019-01-30T17:56:31.527Z,1.40
2019-01-30T18:01:44.226Z,1.90
2019-01-30T18:04:13.453Z,1.13
2019-01-30T18:06:43.343Z,1.73
2019-01-30T18:09:21.701Z,2.20
2019-01-30T18:11:50.760Z,1.70
2019-01-30T18:14:19.521Z,1.83
2019-01-30T18:16:48.305Z,1.77
2019-01-30T18:22:01.720Z,1.80
2019-01-30T18:24:30.499Z,1.87
2019-01-30T18:27:02.246Z,2.97
2019-01-30T18:29:31.238Z,2.90
2019-01-30T18:32:03.035Z,1.70
2019-01-30T18:34:31.740Z,3.10
2019-01-30T18:37:00.636Z,2.93
2019-01-30T18:39:38.597Z,1.93
2019-01-30T18:42:07.902Z,2.90
2019-01-30T18:44:37.183Z,1.60
2019-01-30T18:47:05.979Z,2.17
2019-01-30T18:49:43.737Z,1.60
2019-01-30T18:52:12.461Z,2.40
2019-01-30T18:54:41.164Z,2.20
2019-01-30T18:57:10.053Z,4.50
2019-01-30T19:00:00.588Z,3.40
2019-01-30T19:02:31.070Z,2.10
2019-01-30T19:05:01.958Z,2.20
2019-01-30T19:07:30.790Z,3.43
2019-01-30T19:10:10.984Z,3.47
2019-01-30T19:12:39.955Z,2.60
2019-01-30T19:15:12.786Z,2.30
2019-01-30T19:17:41.849Z,2.73
2019-01-30T19:20:22.076Z,3.07
2019-01-30T19:22:51.194Z,2.13
2019-01-30T19:25:20.480Z,2.10
2019-01-30T19:27:49.173Z,2.03
2019-01-30T19:30:29.020Z,3.30
2019-01-30T19:32:57.818Z,3.27
2019-01-30T19:35:26.555Z,2.37
2019-01-30T19:37:55.800Z,3.30
2019-01-30T19:40:33.839Z,2.50
2019-01-30T19:43:02.937Z,3.73
2019-01-30T19:45:31.721Z,3.60
2019-01-30T19:48:02.495Z,2.50
2019-01-30T19:50:40.149Z,2.40
2019-01-30T19:53:09.425Z,2.80
2019-01-30T19:55:38.147Z,3.03
2019-01-30T19:58:12.214Z,4.27
2019-01-30T20:01:01.354Z,3.43
2019-01-30T20:03:32.366Z,5.07
2019-01-30T20:06:01.562Z,6.37
2019-01-30T20:08:30.692Z,2.00
2019-01-30T20:11:08.972Z,2.60
2019-01-30T20:13:40.349Z,3.17
2019-01-30T20:16:09.206Z,5.80
2019-01-30T20:18:40.705Z,2.57
2019-01-30T20:21:18.957Z,3.33
2019-01-30T20:23:48.376Z,6.37
2019-01-30T20:26:17.138Z,7.87
2019-01-30T20:28:46.182Z,4.87
2019-01-30T20:31:23.856Z,2.87
2019-01-30T20:33:53.091Z,4.97
2019-01-30T20:36:24.995Z,3.77
2019-01-30T20:38:53.679Z,4.47
2019-01-30T20:41:31.807Z,3.70
2019-01-30T20:44:00.593Z,4.57
2019-01-30T20:46:30.793Z,5.23
2019-01-30T20:49:01.153Z,6.03
2019-01-30T20:51:39.138Z,4.73
2019-01-30T20:54:08.065Z,6.43
2019-01-30T20:56:36.977Z,4.33
2019-01-30T20:59:06.687Z,4.00
2019-01-30T21:04:23.161Z,2.57
2019-01-30T21:06:53.078Z,4.57
2019-01-30T21:09:22.187Z,3.83
2019-01-30T21:12:01.331Z,3.67
2019-01-30T21:14:30.323Z,2.07
2019-01-30T21:17:01.232Z,3.60
2019-01-30T21:19:30.042Z,4.40
2019-01-30T21:22:07.878Z,2.20
2019-01-30T21:24:36.800Z,5.77
2019-01-30T21:27:06.035Z,4.73
2019-01-30T21:29:34.731Z,2.87
2019-01-30T21:32:16.463Z,4.17
2019-01-30T21:34:46.080Z,4.33
2019-01-30T21:37:15.400Z,4.60
2019-01-30T21:39:47.182Z,4.27
2019-01-30T21:42:28.718Z,4.47
2019-01-30T21:44:57.407Z,4.73
2019-01-30T21:47:26.356Z,3.87
2019-01-30T21:49:55.145Z,3.63
2019-01-30T21:52:33.339Z,5.03
2019-01-30T21:55:02.992Z,4.93
2019-01-30T21:57:32.117Z,3.63
2019-01-30T22:00:01.202Z,5.30
2019-01-30T22:02:40.034Z,3.63
2019-01-30T22:05:08.852Z,4.50
2019-01-30T22:07:39.249Z,5.00
2019-01-30T22:10:10.223Z,3.47
2019-01-30T22:12:48.281Z,5.50
2019-01-30T22:15:17.717Z,3.07
2019-01-30T22:17:46.733Z,2.83
2019-01-30T22:20:17.917Z,5.20
2019-01-30T22:25:22.479Z,4.03
2019-01-30T22:27:51.297Z,4.07
2019-01-30T22:30:22.388Z,4.70
2019-01-30T22:33:01.700Z,4.40
2019-01-30T22:35:30.584Z,7.10
2019-01-30T22:37:59.528Z,2.77
2019-01-30T22:40:28.206Z,4.97
2019-01-30T22:43:06.939Z,4.17
2019-01-30T22:45:37.182Z,3.30
2019-01-30T22:48:06.696Z,4.80
2019-01-30T22:50:37.932Z,3.40
2019-01-30T22:53:18.907Z,3.27
2019-01-30T22:55:47.882Z,4.63
2019-01-30T22:58:16.986Z,5.80
2019-01-30T23:01:23.618Z,3.67
2019-01-30T23:07:14.276Z,5.27
2019-01-30T23:10:21.020Z,3.43
2019-01-30T23:16:43.364Z,4.57
2019-01-30T23:19:26.640Z,5.80
2019-01-30T23:22:24.107Z,7.87
2019-01-30T23:25:33.439Z,6.07
2019-01-30T23:28:12.470Z,5.73
2019-01-30T23:31:01.650Z,6.87
2019-01-30T23:34:07.088Z,5.67
2019-01-30T23:37:22.012Z,3.90
2019-01-30T23:40:37.414Z,4.03
2019-01-30T23:43:28.898Z,3.57
2019-01-30T23:46:30.022Z,6.43
2019-01-30T23:49:40.973Z,4.03
2019-01-30T23:52:47.354Z,2.87
2019-01-30T23:56:15.663Z,2.57
2019-01-30T23:59:15.939Z,4.77
